sensor_id;sensor_type;location;lat;lon;timestamp;P1;durP1;ratioP1;P2;durP2;ratioP2
18804;SDS011;9530;48.930;9.526;2022-08-19T00:00:34;10.33;;;9.30;;
18804;SDS011;9530;48.930;9.526;2022-08-19T00:03:01;11.63;;;9.57;;
18804;SDS011;9530;48.930;9.526;2022-08-19T00:05:28;10.10;;;9.00;;
18804;SDS011;9530;48.930;9.526;2022-08-19T00:07:55;10.90;;;9.80;;
18804;SDS011;9530;48.930;9.526;2022-08-19T00:10:22;10.37;;;9.37;;
18804;SDS011;9530;48.930;9.526;2022-08-19T00:12:49;10.67;;;9.57;;
18804;SDS011;9530;48.930;9.526;2022-08-19T00:15:18;10.50;;;9.60;;
18804;SDS011;9530;48.930;9.526;2022-08-19T00:17:47;11.40;;;10.20;;
18804;SDS011;9530;48.930;9.526;2022-08-19T00:20:16;10.63;;;9.53;;
18804;SDS011;9530;48.930;9.526;2022-08-19T00:22:44;10.37;;;9.37;;
18804;SDS011;9530;48.930;9.526;2022-08-19T00:25:12;11.30;;;10.10;;
18804;SDS011;9530;48.930;9.526;2022-08-19T00:27:40;10.97;;;9.80;;
18804;SDS011;9530;48.930;9.526;2022-08-19T00:30:07;10.33;;;9.30;;
18804;SDS011;9530;48.930;9.526;2022-08-19T00:32:37;10.70;;;9.60;;
18804;SDS011;9530;48.930;9.526;2022-08-19T00:35:04;11.07;;;9.97;;
18804;SDS011;9530;48.930;9.526;2022-08-19T00:37:31;13.13;;;9.97;;
18804;SDS011;9530;48.930;9.526;2022-08-19T00:39:59;11.40;;;10.30;;
18804;SDS011;9530;48.930;9.526;2022-08-19T00:42:27;10.87;;;9.87;;
18804;SDS011;9530;48.930;9.526;2022-08-19T00:44:54;11.23;;;9.27;;
18804;SDS011;9530;48.930;9.526;2022-08-19T00:47:20;10.10;;;9.20;;
18804;SDS011;9530;48.930;9.526;2022-08-19T00:49:49;10.57;;;9.57;;
18804;SDS011;9530;48.930;9.526;2022-08-19T00:52:19;10.80;;;9.27;;
18804;SDS011;9530;48.930;9.526;2022-08-19T00:54:49;10.73;;;9.70;;
18804;SDS011;9530;48.930;9.526;2022-08-19T00:57:18;10.87;;;9.87;;
18804;SDS011;9530;48.930;9.526;2022-08-19T00:59:51;10.93;;;9.83;;
18804;SDS011;9530;48.930;9.526;2022-08-19T01:02:19;11.33;;;9.57;;
18804;SDS011;9530;48.930;9.526;2022-08-19T01:04:46;10.90;;;9.93;;
18804;SDS011;9530;48.930;9.526;2022-08-19T01:07:14;13.13;;;10.37;;
18804;SDS011;9530;48.930;9.526;2022-08-19T01:09:41;11.03;;;9.83;;
18804;SDS011;9530;48.930;9.526;2022-08-19T01:12:08;11.37;;;9.43;;
18804;SDS011;9530;48.930;9.526;2022-08-19T01:14:35;11.47;;;9.37;;
18804;SDS011;9530;48.930;9.526;2022-08-19T01:17:02;10.47;;;9.57;;
18804;SDS011;9530;48.930;9.526;2022-08-19T01:19:31;11.13;;;9.97;;
18804;SDS011;9530;48.930;9.526;2022-08-19T01:22:01;12.73;;;10.60;;
18804;SDS011;9530;48.930;9.526;2022-08-19T01:24:33;11.47;;;10.37;;
18804;SDS011;9530;48.930;9.526;2022-08-19T01:26:59;12.93;;;10.53;;
18804;SDS011;9530;48.930;9.526;2022-08-19T01:29:29;10.07;;;9.17;;
18804;SDS011;9530;48.930;9.526;2022-08-19T01:31:56;10.60;;;9.50;;
18804;SDS011;9530;48.930;9.526;2022-08-19T01:34:24;11.30;;;10.20;;
18804;SDS011;9530;48.930;9.526;2022-08-19T01:36:51;10.90;;;9.90;;
18804;SDS011;9530;48.930;9.526;2022-08-19T01:39:19;11.40;;;10.27;;
18804;SDS011;9530;48.930;9.526;2022-08-19T01:41:49;11.47;;;10.27;;
18804;SDS011;9530;48.930;9.526;2022-08-19T01:44:16;10.73;;;9.67;;
18804;SDS011;9530;48.930;9.526;2022-08-19T01:46:45;12.23;;;10.90;;
18804;SDS011;9530;48.930;9.526;2022-08-19T01:49:14;11.70;;;9.80;;
18804;SDS011;9530;48.930;9.526;2022-08-19T01:51:42;11.47;;;10.37;;
18804;SDS011;9530;48.930;9.526;2022-08-19T01:54:09;10.47;;;9.47;;
18804;SDS011;9530;48.930;9.526;2022-08-19T01:56:38;10.00;;;9.10;;
18804;SDS011;9530;48.930;9.526;2022-08-19T01:59:08;11.83;;;10.60;;
18804;SDS011;9530;48.930;9.526;2022-08-19T02:01:38;10.87;;;9.77;;
18804;SDS011;9530;48.930;9.526;2022-08-19T02:04:04;11.07;;;9.83;;
18804;SDS011;9530;48.930;9.526;2022-08-19T02:06:31;10.83;;;9.77;;
18804;SDS011;9530;48.930;9.526;2022-08-19T02:08:58;10.43;;;9.33;;
18804;SDS011;9530;48.930;9.526;2022-08-19T02:11:27;10.33;;;9.33;;
18804;SDS011;9530;48.930;9.526;2022-08-19T02:13:56;11.37;;;10.27;;
18804;SDS011;9530;48.930;9.526;2022-08-19T02:16:25;11.27;;;10.07;;
18804;SDS011;9530;48.930;9.526;2022-08-19T02:18:51;11.13;;;10.00;;
18804;SDS011;9530;48.930;9.526;2022-08-19T02:21:19;12.07;;;10.10;;
18804;SDS011;9530;48.930;9.526;2022-08-19T02:23:47;11.30;;;10.20;;
18804;SDS011;9530;48.930;9.526;2022-08-19T02:26:14;12.63;;;10.33;;
18804;SDS011;9530;48.930;9.526;2022-08-19T02:28:42;11.60;;;10.57;;
18804;SDS011;9530;48.930;9.526;2022-08-19T02:31:09;11.20;;;10.13;;
18804;SDS011;9530;48.930;9.526;2022-08-19T02:33:38;11.20;;;9.80;;
18804;SDS011;9530;48.930;9.526;2022-08-19T02:36:05;11.27;;;10.17;;
18804;SDS011;9530;48.930;9.526;2022-08-19T02:38:33;11.33;;;10.23;;
18804;SDS011;9530;48.930;9.526;2022-08-19T02:41:00;12.00;;;10.27;;
18804;SDS011;9530;48.930;9.526;2022-08-19T02:43:29;11.43;;;10.33;;
18804;SDS011;9530;48.930;9.526;2022-08-19T02:46:02;11.10;;;9.77;;
18804;SDS011;9530;48.930;9.526;2022-08-19T02:48:39;11.53;;;10.20;;
18804;SDS011;9530;48.930;9.526;2022-08-19T02:51:06;11.17;;;10.07;;
18804;SDS011;9530;48.930;9.526;2022-08-19T02:53:33;12.30;;;10.50;;
18804;SDS011;9530;48.930;9.526;2022-08-19T02:55:59;13.20;;;10.40;;
18804;SDS011;9530;48.930;9.526;2022-08-19T02:58:26;11.60;;;10.50;;
18804;SDS011;9530;48.930;9.526;2022-08-19T03:00:54;12.53;;;10.30;;
18804;SDS011;9530;48.930;9.526;2022-08-19T03:03:22;11.33;;;10.33;;
18804;SDS011;9530;48.930;9.526;2022-08-19T03:05:50;11.90;;;10.63;;
18804;SDS011;9530;48.930;9.526;2022-08-19T03:08:17;13.70;;;11.23;;
18804;SDS011;9530;48.930;9.526;2022-08-19T03:10:45;13.13;;;10.83;;
18804;SDS011;9530;48.930;9.526;2022-08-19T03:13:13;12.07;;;10.63;;
18804;SDS011;9530;48.930;9.526;2022-08-19T03:15:42;12.57;;;11.27;;
18804;SDS011;9530;48.930;9.526;2022-08-19T03:18:09;12.20;;;10.90;;
18804;SDS011;9530;48.930;9.526;2022-08-19T03:20:39;12.40;;;11.17;;
18804;SDS011;9530;48.930;9.526;2022-08-19T03:23:09;12.77;;;11.47;;
18804;SDS011;9530;48.930;9.526;2022-08-19T03:25:38;12.60;;;11.17;;
18804;SDS011;9530;48.930;9.526;2022-08-19T03:28:08;12.53;;;11.23;;
18804;SDS011;9530;48.930;9.526;2022-08-19T03:30:36;11.90;;;10.70;;
18804;SDS011;9530;48.930;9.526;2022-08-19T03:33:04;12.30;;;10.90;;
18804;SDS011;9530;48.930;9.526;2022-08-19T03:35:31;11.77;;;10.67;;
18804;SDS011;9530;48.930;9.526;2022-08-19T03:37:58;12.80;;;11.60;;
18804;SDS011;9530;48.930;9.526;2022-08-19T03:40:26;12.43;;;11.17;;
18804;SDS011;9530;48.930;9.526;2022-08-19T03:42:54;12.67;;;11.40;;
18804;SDS011;9530;48.930;9.526;2022-08-19T03:45:21;12.30;;;11.10;;
18804;SDS011;9530;48.930;9.526;2022-08-19T03:47:48;13.30;;;11.90;;
18804;SDS011;9530;48.930;9.526;2022-08-19T03:50:15;12.50;;;11.00;;
18804;SDS011;9530;48.930;9.526;2022-08-19T03:52:46;12.33;;;11.03;;
18804;SDS011;9530;48.930;9.526;2022-08-19T03:55:15;12.17;;;10.80;;
18804;SDS011;9530;48.930;9.526;2022-08-19T03:57:43;12.80;;;11.33;;
18804;SDS011;9530;48.930;9.526;2022-08-19T04:00:14;15.40;;;12.10;;
18804;SDS011;9530;48.930;9.526;2022-08-19T04:02:41;15.07;;;13.43;;
18804;SDS011;9530;48.930;9.526;2022-08-19T04:05:08;15.33;;;13.73;;
18804;SDS011;9530;48.930;9.526;2022-08-19T04:07:35;17.67;;;14.73;;
18804;SDS011;9530;48.930;9.526;2022-08-19T04:10:02;14.97;;;13.43;;
18804;SDS011;9530;48.930;9.526;2022-08-19T04:12:30;13.87;;;12.47;;
18804;SDS011;9530;48.930;9.526;2022-08-19T04:14:58;14.43;;;12.97;;
18804;SDS011;9530;48.930;9.526;2022-08-19T04:17:24;15.83;;;13.90;;
18804;SDS011;9530;48.930;9.526;2022-08-19T04:19:51;13.40;;;11.97;;
18804;SDS011;9530;48.930;9.526;2022-08-19T04:22:18;12.07;;;10.77;;
18804;SDS011;9530;48.930;9.526;2022-08-19T04:24:44;14.17;;;12.73;;
18804;SDS011;9530;48.930;9.526;2022-08-19T04:27:11;14.47;;;13.07;;
18804;SDS011;9530;48.930;9.526;2022-08-19T04:29:38;13.67;;;12.30;;
18804;SDS011;9530;48.930;9.526;2022-08-19T04:32:06;12.60;;;11.40;;
18804;SDS011;9530;48.930;9.526;2022-08-19T04:34:33;12.70;;;11.40;;
18804;SDS011;9530;48.930;9.526;2022-08-19T04:37:00;13.30;;;12.00;;
18804;SDS011;9530;48.930;9.526;2022-08-19T04:39:28;13.73;;;11.60;;
18804;SDS011;9530;48.930;9.526;2022-08-19T04:42:10;12.97;;;11.67;;
18804;SDS011;9530;48.930;9.526;2022-08-19T04:44:54;14.40;;;12.00;;
18804;SDS011;9530;48.930;9.526;2022-08-19T04:47:22;12.10;;;10.97;;
18804;SDS011;9530;48.930;9.526;2022-08-19T04:49:49;13.07;;;11.77;;
18804;SDS011;9530;48.930;9.526;2022-08-19T04:52:16;13.10;;;11.80;;
18804;SDS011;9530;48.930;9.526;2022-08-19T04:54:42;13.47;;;12.10;;
18804;SDS011;9530;48.930;9.526;2022-08-19T04:57:09;13.77;;;12.43;;
18804;SDS011;9530;48.930;9.526;2022-08-19T04:59:36;13.50;;;12.10;;
18804;SDS011;9530;48.930;9.526;2022-08-19T05:02:03;13.40;;;12.00;;
18804;SDS011;9530;48.930;9.526;2022-08-19T05:04:32;14.77;;;12.47;;
18804;SDS011;9530;48.930;9.526;2022-08-19T05:06:59;13.67;;;12.20;;
18804;SDS011;9530;48.930;9.526;2022-08-19T05:09:26;13.93;;;12.43;;
18804;SDS011;9530;48.930;9.526;2022-08-19T05:11:53;14.43;;;12.83;;
18804;SDS011;9530;48.930;9.526;2022-08-19T05:14:20;14.33;;;12.23;;
18804;SDS011;9530;48.930;9.526;2022-08-19T05:16:46;13.40;;;12.00;;
18804;SDS011;9530;48.930;9.526;2022-08-19T05:19:13;13.07;;;11.77;;
18804;SDS011;9530;48.930;9.526;2022-08-19T05:22:00;13.80;;;12.50;;
18804;SDS011;9530;48.930;9.526;2022-08-19T05:24:44;13.90;;;12.50;;
18804;SDS011;9530;48.930;9.526;2022-08-19T05:27:11;14.00;;;12.60;;
18804;SDS011;9530;48.930;9.526;2022-08-19T05:29:38;13.83;;;12.23;;
18804;SDS011;9530;48.930;9.526;2022-08-19T05:32:05;14.97;;;12.70;;
18804;SDS011;9530;48.930;9.526;2022-08-19T05:34:34;16.07;;;13.60;;
18804;SDS011;9530;48.930;9.526;2022-08-19T05:37:02;14.63;;;13.07;;
18804;SDS011;9530;48.930;9.526;2022-08-19T05:39:30;13.87;;;12.50;;
18804;SDS011;9530;48.930;9.526;2022-08-19T05:41:59;15.17;;;13.57;;
18804;SDS011;9530;48.930;9.526;2022-08-19T05:44:30;13.70;;;12.23;;
18804;SDS011;9530;48.930;9.526;2022-08-19T05:46:58;14.80;;;13.17;;
18804;SDS011;9530;48.930;9.526;2022-08-19T05:49:27;14.83;;;13.20;;
18804;SDS011;9530;48.930;9.526;2022-08-19T05:51:55;15.73;;;13.63;;
18804;SDS011;9530;48.930;9.526;2022-08-19T05:54:23;15.57;;;14.00;;
18804;SDS011;9530;48.930;9.526;2022-08-19T05:56:50;17.60;;;13.87;;
18804;SDS011;9530;48.930;9.526;2022-08-19T05:59:18;14.87;;;13.33;;
18804;SDS011;9530;48.930;9.526;2022-08-19T06:01:46;14.73;;;13.30;;
18804;SDS011;9530;48.930;9.526;2022-08-19T06:04:15;14.33;;;12.93;;
18804;SDS011;9530;48.930;9.526;2022-08-19T06:06:43;15.23;;;13.73;;
18804;SDS011;9530;48.930;9.526;2022-08-19T06:09:10;15.97;;;14.27;;
18804;SDS011;9530;48.930;9.526;2022-08-19T06:11:39;14.07;;;12.70;;
18804;SDS011;9530;48.930;9.526;2022-08-19T06:14:08;15.13;;;13.07;;
18804;SDS011;9530;48.930;9.526;2022-08-19T06:16:37;16.53;;;14.27;;
18804;SDS011;9530;48.930;9.526;2022-08-19T06:19:06;16.13;;;14.43;;
18804;SDS011;9530;48.930;9.526;2022-08-19T06:21:35;17.73;;;15.77;;
18804;SDS011;9530;48.930;9.526;2022-08-19T06:24:03;17.50;;;15.57;;
18804;SDS011;9530;48.930;9.526;2022-08-19T06:26:31;18.70;;;16.33;;
18804;SDS011;9530;48.930;9.526;2022-08-19T06:29:00;16.73;;;15.03;;
18804;SDS011;9530;48.930;9.526;2022-08-19T06:31:28;19.10;;;16.10;;
18804;SDS011;9530;48.930;9.526;2022-08-19T06:33:58;18.77;;;16.50;;
18804;SDS011;9530;48.930;9.526;2022-08-19T06:36:27;21.80;;;16.57;;
18804;SDS011;9530;48.930;9.526;2022-08-19T06:38:59;17.60;;;15.67;;
18804;SDS011;9530;48.930;9.526;2022-08-19T06:41:27;17.20;;;15.40;;
18804;SDS011;9530;48.930;9.526;2022-08-19T06:43:53;17.77;;;15.87;;
18804;SDS011;9530;48.930;9.526;2022-08-19T06:46:22;20.00;;;16.10;;
18804;SDS011;9530;48.930;9.526;2022-08-19T06:48:49;17.10;;;15.30;;
18804;SDS011;9530;48.930;9.526;2022-08-19T06:51:18;17.90;;;15.97;;
18804;SDS011;9530;48.930;9.526;2022-08-19T06:53:45;18.10;;;16.10;;
18804;SDS011;9530;48.930;9.526;2022-08-19T06:56:12;18.87;;;16.43;;
18804;SDS011;9530;48.930;9.526;2022-08-19T06:58:40;19.70;;;15.83;;
18804;SDS011;9530;48.930;9.526;2022-08-19T07:01:07;20.03;;;15.97;;
18804;SDS011;9530;48.930;9.526;2022-08-19T07:03:35;17.77;;;15.90;;
18804;SDS011;9530;48.930;9.526;2022-08-19T07:06:04;19.97;;;16.73;;
18804;SDS011;9530;48.930;9.526;2022-08-19T07:08:33;21.37;;;17.00;;
18804;SDS011;9530;48.930;9.526;2022-08-19T07:11:01;21.63;;;17.33;;
18804;SDS011;9530;48.930;9.526;2022-08-19T07:13:28;23.60;;;18.00;;
18804;SDS011;9530;48.930;9.526;2022-08-19T07:15:57;19.50;;;17.33;;
18804;SDS011;9530;48.930;9.526;2022-08-19T07:18:24;21.73;;;17.67;;
18804;SDS011;9530;48.930;9.526;2022-08-19T07:21:01;22.47;;;17.30;;
18804;SDS011;9530;48.930;9.526;2022-08-19T07:23:29;22.60;;;17.80;;
18804;SDS011;9530;48.930;9.526;2022-08-19T07:25:55;20.43;;;17.87;;
18804;SDS011;9530;48.930;9.526;2022-08-19T07:28:22;19.63;;;16.70;;
18804;SDS011;9530;48.930;9.526;2022-08-19T07:30:49;20.13;;;17.50;;
18804;SDS011;9530;48.930;9.526;2022-08-19T07:33:16;20.37;;;17.47;;
18804;SDS011;9530;48.930;9.526;2022-08-19T07:35:43;20.43;;;17.20;;
18804;SDS011;9530;48.930;9.526;2022-08-19T07:38:11;23.07;;;18.67;;
18804;SDS011;9530;48.930;9.526;2022-08-19T07:40:39;22.60;;;17.10;;
18804;SDS011;9530;48.930;9.526;2022-08-19T07:43:08;21.90;;;17.43;;
18804;SDS011;9530;48.930;9.526;2022-08-19T07:45:35;22.20;;;18.17;;
18804;SDS011;9530;48.930;9.526;2022-08-19T07:48:01;21.27;;;18.13;;
18804;SDS011;9530;48.930;9.526;2022-08-19T07:50:29;23.57;;;18.00;;
18804;SDS011;9530;48.930;9.526;2022-08-19T07:52:56;23.03;;;17.87;;
18804;SDS011;9530;48.930;9.526;2022-08-19T07:55:24;22.67;;;17.87;;
18804;SDS011;9530;48.930;9.526;2022-08-19T07:57:52;20.73;;;17.10;;
18804;SDS011;9530;48.930;9.526;2022-08-19T08:00:19;20.87;;;17.73;;
18804;SDS011;9530;48.930;9.526;2022-08-19T08:02:46;18.40;;;15.87;;
18804;SDS011;9530;48.930;9.526;2022-08-19T08:05:12;19.43;;;17.00;;
18804;SDS011;9530;48.930;9.526;2022-08-19T08:08:11;21.97;;;18.70;;
18804;SDS011;9530;48.930;9.526;2022-08-19T08:10:57;19.03;;;16.87;;
18804;SDS011;9530;48.930;9.526;2022-08-19T08:13:24;22.47;;;17.23;;
18804;SDS011;9530;48.930;9.526;2022-08-19T08:15:51;22.43;;;18.53;;
18804;SDS011;9530;48.930;9.526;2022-08-19T08:18:18;24.37;;;17.80;;
18804;SDS011;9530;48.930;9.526;2022-08-19T08:20:45;20.43;;;17.70;;
18804;SDS011;9530;48.930;9.526;2022-08-19T08:23:12;20.90;;;17.77;;
18804;SDS011;9530;48.930;9.526;2022-08-19T08:25:50;20.70;;;17.30;;
18804;SDS011;9530;48.930;9.526;2022-08-19T08:28:19;19.43;;;16.83;;
18804;SDS011;9530;48.930;9.526;2022-08-19T08:30:46;25.43;;;17.93;;
18804;SDS011;9530;48.930;9.526;2022-08-19T08:33:13;17.33;;;15.43;;
18804;SDS011;9530;48.930;9.526;2022-08-19T08:35:42;18.13;;;15.77;;
18804;SDS011;9530;48.930;9.526;2022-08-19T08:38:10;22.43;;;16.50;;
18804;SDS011;9530;48.930;9.526;2022-08-19T08:40:39;19.77;;;16.90;;
18804;SDS011;9530;48.930;9.526;2022-08-19T08:43:10;18.37;;;16.17;;
18804;SDS011;9530;48.930;9.526;2022-08-19T08:45:50;24.47;;;16.97;;
18804;SDS011;9530;48.930;9.526;2022-08-19T08:48:22;21.70;;;16.67;;
18804;SDS011;9530;48.930;9.526;2022-08-19T08:50:56;21.13;;;16.10;;
18804;SDS011;9530;48.930;9.526;2022-08-19T08:53:24;20.27;;;15.60;;
18804;SDS011;9530;48.930;9.526;2022-08-19T08:55:52;19.83;;;15.97;;
18804;SDS011;9530;48.930;9.526;2022-08-19T08:58:20;18.03;;;16.10;;
18804;SDS011;9530;48.930;9.526;2022-08-19T09:00:56;17.43;;;15.30;;
18804;SDS011;9530;48.930;9.526;2022-08-19T09:03:24;20.37;;;15.13;;
18804;SDS011;9530;48.930;9.526;2022-08-19T09:05:56;17.43;;;15.57;;
18804;SDS011;9530;48.930;9.526;2022-08-19T09:08:29;18.40;;;15.40;;
18804;SDS011;9530;48.930;9.526;2022-08-19T09:11:06;16.60;;;14.63;;
18804;SDS011;9530;48.930;9.526;2022-08-19T09:13:38;17.00;;;14.33;;
18804;SDS011;9530;48.930;9.526;2022-08-19T09:16:13;16.50;;;14.77;;
18804;SDS011;9530;48.930;9.526;2022-08-19T09:18:46;15.67;;;14.03;;
18804;SDS011;9530;48.930;9.526;2022-08-19T09:21:17;17.97;;;14.90;;
18804;SDS011;9530;48.930;9.526;2022-08-19T09:23:45;20.73;;;14.83;;
18804;SDS011;9530;48.930;9.526;2022-08-19T09:26:12;16.00;;;14.20;;
18804;SDS011;9530;48.930;9.526;2022-08-19T09:28:45;18.00;;;14.70;;
18804;SDS011;9530;48.930;9.526;2022-08-19T09:31:15;17.27;;;13.70;;
18804;SDS011;9530;48.930;9.526;2022-08-19T09:33:44;15.30;;;13.70;;
18804;SDS011;9530;48.930;9.526;2022-08-19T09:36:13;18.77;;;14.00;;
18804;SDS011;9530;48.930;9.526;2022-08-19T09:38:41;16.83;;;14.03;;
18804;SDS011;9530;48.930;9.526;2022-08-19T09:41:10;15.97;;;13.50;;
18804;SDS011;9530;48.930;9.526;2022-08-19T09:43:39;17.97;;;14.03;;
18804;SDS011;9530;48.930;9.526;2022-08-19T09:46:07;15.63;;;13.93;;
18804;SDS011;9530;48.930;9.526;2022-08-19T09:48:36;17.23;;;13.77;;
18804;SDS011;9530;48.930;9.526;2022-08-19T09:51:04;15.90;;;13.83;;
18804;SDS011;9530;48.930;9.526;2022-08-19T09:53:31;16.77;;;14.33;;
18804;SDS011;9530;48.930;9.526;2022-08-19T09:55:58;18.17;;;13.70;;
18804;SDS011;9530;48.930;9.526;2022-08-19T09:58:25;15.67;;;13.50;;
18804;SDS011;9530;48.930;9.526;2022-08-19T10:00:52;15.67;;;13.97;;
18804;SDS011;9530;48.930;9.526;2022-08-19T10:03:19;17.37;;;14.20;;
18804;SDS011;9530;48.930;9.526;2022-08-19T10:05:48;15.63;;;13.43;;
18804;SDS011;9530;48.930;9.526;2022-08-19T10:08:14;19.10;;;14.03;;
18804;SDS011;9530;48.930;9.526;2022-08-19T10:10:43;16.53;;;13.40;;
18804;SDS011;9530;48.930;9.526;2022-08-19T10:13:11;19.37;;;13.80;;
18804;SDS011;9530;48.930;9.526;2022-08-19T10:15:38;17.50;;;13.97;;
18804;SDS011;9530;48.930;9.526;2022-08-19T10:18:07;17.73;;;14.40;;
18804;SDS011;9530;48.930;9.526;2022-08-19T10:20:33;15.07;;;13.27;;
18804;SDS011;9530;48.930;9.526;2022-08-19T10:23:03;16.23;;;13.10;;
18804;SDS011;9530;48.930;9.526;2022-08-19T10:25:31;14.73;;;13.17;;
18804;SDS011;9530;48.930;9.526;2022-08-19T10:27:58;15.13;;;13.13;;
18804;SDS011;9530;48.930;9.526;2022-08-19T10:30:25;16.80;;;13.90;;
18804;SDS011;9530;48.930;9.526;2022-08-19T10:32:52;15.03;;;12.20;;
18804;SDS011;9530;48.930;9.526;2022-08-19T10:35:19;16.03;;;12.60;;
18804;SDS011;9530;48.930;9.526;2022-08-19T10:37:46;12.90;;;11.40;;
18804;SDS011;9530;48.930;9.526;2022-08-19T10:40:13;14.00;;;12.10;;
18804;SDS011;9530;48.930;9.526;2022-08-19T10:42:40;15.67;;;13.03;;
18804;SDS011;9530;48.930;9.526;2022-08-19T10:45:07;14.90;;;13.23;;
18804;SDS011;9530;48.930;9.526;2022-08-19T10:47:35;15.50;;;13.20;;
18804;SDS011;9530;48.930;9.526;2022-08-19T10:50:02;14.73;;;12.00;;
18804;SDS011;9530;48.930;9.526;2022-08-19T10:52:48;16.47;;;12.57;;
18804;SDS011;9530;48.930;9.526;2022-08-19T10:55:17;14.67;;;13.13;;
18804;SDS011;9530;48.930;9.526;2022-08-19T10:58:03;14.77;;;12.63;;
18804;SDS011;9530;48.930;9.526;2022-08-19T11:00:35;15.30;;;12.77;;
18804;SDS011;9530;48.930;9.526;2022-08-19T11:03:02;14.17;;;12.33;;
18804;SDS011;9530;48.930;9.526;2022-08-19T11:05:28;17.47;;;13.33;;
18804;SDS011;9530;48.930;9.526;2022-08-19T11:07:55;19.63;;;13.57;;
18804;SDS011;9530;48.930;9.526;2022-08-19T11:10:23;14.73;;;13.17;;
18804;SDS011;9530;48.930;9.526;2022-08-19T11:12:50;15.73;;;13.43;;
18804;SDS011;9530;48.930;9.526;2022-08-19T11:15:19;17.57;;;14.57;;
18804;SDS011;9530;48.930;9.526;2022-08-19T11:17:46;14.80;;;13.13;;
18804;SDS011;9530;48.930;9.526;2022-08-19T11:20:13;17.07;;;13.53;;
18804;SDS011;9530;48.930;9.526;2022-08-19T11:22:41;17.50;;;13.97;;
18804;SDS011;9530;48.930;9.526;2022-08-19T11:25:09;16.10;;;13.40;;
18804;SDS011;9530;48.930;9.526;2022-08-19T11:27:38;15.87;;;13.93;;
18804;SDS011;9530;48.930;9.526;2022-08-19T11:30:08;14.63;;;13.07;;
18804;SDS011;9530;48.930;9.526;2022-08-19T11:32:35;14.83;;;13.27;;
18804;SDS011;9530;48.930;9.526;2022-08-19T11:35:02;14.47;;;12.97;;
18804;SDS011;9530;48.930;9.526;2022-08-19T11:37:29;13.97;;;12.47;;
18804;SDS011;9530;48.930;9.526;2022-08-19T11:39:57;15.60;;;13.93;;
18804;SDS011;9530;48.930;9.526;2022-08-19T11:42:25;15.27;;;13.07;;
18804;SDS011;9530;48.930;9.526;2022-08-19T11:45:10;18.33;;;13.70;;
18804;SDS011;9530;48.930;9.526;2022-08-19T11:47:38;16.23;;;14.03;;
18804;SDS011;9530;48.930;9.526;2022-08-19T11:50:05;15.67;;;14.07;;
18804;SDS011;9530;48.930;9.526;2022-08-19T11:52:32;16.23;;;13.23;;
18804;SDS011;9530;48.930;9.526;2022-08-19T11:54:59;15.03;;;13.37;;
18804;SDS011;9530;48.930;9.526;2022-08-19T11:57:26;15.77;;;12.97;;
18804;SDS011;9530;48.930;9.526;2022-08-19T11:59:53;15.53;;;12.40;;
18804;SDS011;9530;48.930;9.526;2022-08-19T12:02:21;13.77;;;12.37;;
18804;SDS011;9530;48.930;9.526;2022-08-19T12:04:48;15.10;;;13.50;;
18804;SDS011;9530;48.930;9.526;2022-08-19T12:07:15;14.87;;;13.30;;
18804;SDS011;9530;48.930;9.526;2022-08-19T12:09:41;14.77;;;13.20;;
18804;SDS011;9530;48.930;9.526;2022-08-19T12:12:08;14.53;;;13.00;;
18804;SDS011;9530;48.930;9.526;2022-08-19T12:14:35;13.50;;;12.20;;
18804;SDS011;9530;48.930;9.526;2022-08-19T12:17:02;16.07;;;12.50;;
18804;SDS011;9530;48.930;9.526;2022-08-19T12:19:32;16.70;;;12.90;;
18804;SDS011;9530;48.930;9.526;2022-08-19T12:22:00;14.83;;;13.27;;
18804;SDS011;9530;48.930;9.526;2022-08-19T12:24:29;16.33;;;12.80;;
18804;SDS011;9530;48.930;9.526;2022-08-19T12:26:57;14.33;;;12.83;;
18804;SDS011;9530;48.930;9.526;2022-08-19T12:29:26;13.37;;;11.97;;
18804;SDS011;9530;48.930;9.526;2022-08-19T12:31:54;15.60;;;12.53;;
18804;SDS011;9530;48.930;9.526;2022-08-19T12:34:25;16.70;;;12.37;;
18804;SDS011;9530;48.930;9.526;2022-08-19T12:36:56;14.13;;;12.40;;
18804;SDS011;9530;48.930;9.526;2022-08-19T12:39:22;14.30;;;12.80;;
18804;SDS011;9530;48.930;9.526;2022-08-19T12:41:49;14.37;;;12.50;;
18804;SDS011;9530;48.930;9.526;2022-08-19T12:44:16;15.73;;;12.70;;
18804;SDS011;9530;48.930;9.526;2022-08-19T12:46:43;15.50;;;12.50;;
18804;SDS011;9530;48.930;9.526;2022-08-19T12:49:10;14.83;;;11.77;;
18804;SDS011;9530;48.930;9.526;2022-08-19T12:51:37;14.07;;;12.03;;
18804;SDS011;9530;48.930;9.526;2022-08-19T12:54:05;14.67;;;11.20;;
18804;SDS011;9530;48.930;9.526;2022-08-19T12:56:31;13.40;;;11.67;;
18804;SDS011;9530;48.930;9.526;2022-08-19T12:59:00;12.13;;;10.93;;
18804;SDS011;9530;48.930;9.526;2022-08-19T13:01:27;11.53;;;10.33;;
18804;SDS011;9530;48.930;9.526;2022-08-19T13:03:55;11.97;;;10.73;;
18804;SDS011;9530;48.930;9.526;2022-08-19T13:06:21;12.37;;;11.17;;
18804;SDS011;9530;48.930;9.526;2022-08-19T13:08:48;14.53;;;11.40;;
18804;SDS011;9530;48.930;9.526;2022-08-19T13:11:17;13.13;;;11.73;;
18804;SDS011;9530;48.930;9.526;2022-08-19T13:13:46;14.47;;;11.63;;
18804;SDS011;9530;48.930;9.526;2022-08-19T13:16:16;12.80;;;11.30;;
18804;SDS011;9530;48.930;9.526;2022-08-19T13:18:44;13.80;;;11.40;;
18804;SDS011;9530;48.930;9.526;2022-08-19T13:21:12;13.47;;;11.40;;
18804;SDS011;9530;48.930;9.526;2022-08-19T13:23:39;12.70;;;11.30;;
18804;SDS011;9530;48.930;9.526;2022-08-19T13:26:07;12.30;;;11.10;;
18804;SDS011;9530;48.930;9.526;2022-08-19T13:28:36;11.97;;;10.67;;
18804;SDS011;9530;48.930;9.526;2022-08-19T13:31:21;13.00;;;11.70;;
18804;SDS011;9530;48.930;9.526;2022-08-19T13:34:06;12.63;;;11.33;;
18804;SDS011;9530;48.930;9.526;2022-08-19T13:36:33;15.07;;;12.70;;
18804;SDS011;9530;48.930;9.526;2022-08-19T13:39:00;14.93;;;12.17;;
18804;SDS011;9530;48.930;9.526;2022-08-19T13:41:27;12.90;;;11.47;;
18804;SDS011;9530;48.930;9.526;2022-08-19T13:43:56;13.33;;;11.87;;
18804;SDS011;9530;48.930;9.526;2022-08-19T13:46:23;13.67;;;11.43;;
18804;SDS011;9530;48.930;9.526;2022-08-19T13:48:49;14.03;;;11.03;;
18804;SDS011;9530;48.930;9.526;2022-08-19T13:51:16;16.23;;;12.57;;
18804;SDS011;9530;48.930;9.526;2022-08-19T13:53:43;14.20;;;12.67;;
18804;SDS011;9530;48.930;9.526;2022-08-19T13:56:11;13.63;;;11.80;;
18804;SDS011;9530;48.930;9.526;2022-08-19T13:58:45;14.10;;;12.60;;
18804;SDS011;9530;48.930;9.526;2022-08-19T14:01:17;14.03;;;12.10;;
18804;SDS011;9530;48.930;9.526;2022-08-19T14:03:45;13.90;;;12.50;;
18804;SDS011;9530;48.930;9.526;2022-08-19T14:06:12;14.10;;;12.67;;
18804;SDS011;9530;48.930;9.526;2022-08-19T14:08:38;13.97;;;12.50;;
18804;SDS011;9530;48.930;9.526;2022-08-19T14:11:06;14.33;;;12.83;;
18804;SDS011;9530;48.930;9.526;2022-08-19T14:13:33;14.60;;;13.10;;
18804;SDS011;9530;48.930;9.526;2022-08-19T14:16:00;14.83;;;12.97;;
18804;SDS011;9530;48.930;9.526;2022-08-19T14:18:28;13.53;;;12.17;;
18804;SDS011;9530;48.930;9.526;2022-08-19T14:20:55;14.70;;;13.20;;
18804;SDS011;9530;48.930;9.526;2022-08-19T14:23:21;14.67;;;12.00;;
18804;SDS011;9530;48.930;9.526;2022-08-19T14:25:48;14.87;;;13.20;;
18804;SDS011;9530;48.930;9.526;2022-08-19T14:28:15;15.13;;;13.60;;
18804;SDS011;9530;48.930;9.526;2022-08-19T14:30:42;14.83;;;13.30;;
18804;SDS011;9530;48.930;9.526;2022-08-19T14:33:09;16.00;;;14.30;;
18804;SDS011;9530;48.930;9.526;2022-08-19T14:35:37;15.43;;;13.83;;
18804;SDS011;9530;48.930;9.526;2022-08-19T14:38:14;15.27;;;13.67;;
18804;SDS011;9530;48.930;9.526;2022-08-19T14:40:42;16.17;;;14.47;;
18804;SDS011;9530;48.930;9.526;2022-08-19T14:43:08;15.20;;;12.47;;